createdAt,value
2019-05-12T00:00:18.233Z,96343.39
2019-05-12T00:03:05.157Z,96347.89
2019-05-12T00:05:52.307Z,96348.95
2019-05-12T00:08:39.706Z,96348.27
2019-05-12T00:11:28.724Z,96356.56
2019-05-12T00:14:17.797Z,96367.03
2019-05-12T00:17:08.235Z,96364.90
2019-05-12T00:19:58.363Z,96369.33
2019-05-12T00:22:48.855Z,96364.19
2019-05-12T00:25:38.682Z,96367.78
2019-05-12T00:28:25.506Z,96370.19
2019-05-12T00:31:13.261Z,96373.14
2019-05-12T00:34:01.018Z,96372.69
2019-05-12T00:36:48.673Z,96372.89
2019-05-12T00:39:38.222Z,96375.46
2019-05-12T00:42:25.315Z,96369.69
2019-05-12T00:45:13.458Z,96366.13
2019-05-12T00:48:00.946Z,96368.45
2019-05-12T00:50:48.752Z,96370.98
2019-05-12T00:53:40.155Z,96375.16
2019-05-12T00:56:25.179Z,96377.09
2019-05-12T00:59:13.314Z,96377.73
2019-05-12T01:02:00.526Z,96384.05
2019-05-12T01:04:48.728Z,96390.16
2019-05-12T01:07:38.211Z,96392.48
2019-05-12T01:10:28.589Z,96395.10
2019-05-12T01:13:15.165Z,96389.11
2019-05-12T01:16:02.630Z,96401.66
2019-05-12T01:18:50.245Z,96403.97
2019-05-12T01:21:37.954Z,96408.59
2019-05-12T01:24:27.966Z,96414.80
2019-05-12T01:27:14.472Z,96413.64
2019-05-12T01:30:01.508Z,96424.63
2019-05-12T01:32:48.512Z,96431.50
2019-05-12T01:35:38.333Z,96443.17
2019-05-12T01:38:25.196Z,96443.23
2019-05-12T01:41:12.603Z,96450.61
2019-05-12T01:44:00.148Z,96456.98
2019-05-12T01:46:48.357Z,96463.36
2019-05-12T01:49:38.246Z,96471.80
2019-05-12T01:52:24.919Z,96475.84
2019-05-12T01:55:12.144Z,96484.01
2019-05-12T01:57:59.422Z,96483.47
2019-05-12T02:00:48.254Z,96489.16
2019-05-12T02:03:37.673Z,96494.55
2019-05-12T02:06:27.680Z,96495.86
2019-05-12T02:09:18.552Z,96507.60
2019-05-12T02:12:08.115Z,96513.02
2019-05-12T02:14:55.007Z,96509.36
2019-05-12T02:17:42.356Z,96511.69
2019-05-12T02:20:30.081Z,96516.72
2019-05-12T02:23:17.930Z,96523.98
2019-05-12T02:26:08.083Z,96527.25
2019-05-12T02:28:54.620Z,96528.27
2019-05-12T02:31:42.373Z,96532.85
2019-05-12T02:34:29.804Z,96539.88
2019-05-12T02:37:16.849Z,96547.52
2019-05-12T02:40:05.695Z,96550.13
2019-05-12T02:42:55.097Z,96550.83
2019-05-12T02:45:44.696Z,96550.57
2019-05-12T02:48:35.460Z,96554.63
2019-05-12T02:51:24.582Z,96556.55
2019-05-12T02:54:10.793Z,96546.36
2019-05-12T02:56:58.513Z,96554.83
2019-05-12T02:59:47.406Z,96559.25
2019-05-12T03:02:36.345Z,96559.45
2019-05-12T03:05:24.962Z,96559.19
2019-05-12T03:08:15.496Z,96563.03
2019-05-12T03:11:06.011Z,96565.27
2019-05-12T03:13:54.912Z,96569.23
2019-05-12T03:16:45.207Z,96574.00
2019-05-12T03:19:34.413Z,96574.05
2019-05-12T03:22:20.748Z,96578.16
2019-05-12T03:25:20.009Z,96579.61
2019-05-12T03:27:56.912Z,96588.96
2019-05-12T03:30:48.713Z,96588.70
2019-05-12T03:33:41.587Z,96591.72
2019-05-12T03:36:32.300Z,96589.64
2019-05-12T03:39:14.727Z,96591.19
2019-05-12T03:42:00.955Z,96593.44
2019-05-12T03:44:48.488Z,96594.94
2019-05-12T03:47:35.963Z,96592.95
2019-05-12T03:50:24.314Z,96591.77
2019-05-12T03:53:15.634Z,96598.20
2019-05-12T03:56:04.143Z,96602.83
2019-05-12T03:58:50.278Z,96605.18
2019-05-12T04:01:37.773Z,96603.15
2019-05-12T04:04:25.398Z,96606.52
2019-05-12T04:07:15.264Z,96604.22
2019-05-12T04:10:04.860Z,96605.10
2019-05-12T04:12:51.300Z,96618.23
2019-05-12T04:15:39.033Z,96617.31
2019-05-12T04:18:26.087Z,96626.94
2019-05-12T04:21:15.621Z,96626.45
2019-05-12T04:24:05.318Z,96629.53
2019-05-12T04:26:54.930Z,96636.08
2019-05-12T04:29:44.040Z,96644.20
2019-05-12T04:32:30.116Z,96642.54
2019-05-12T04:35:17.455Z,96641.11
2019-05-12T04:38:05.712Z,96644.84
2019-05-12T04:40:55.347Z,96651.09
2019-05-12T04:43:44.916Z,96655.31
2019-05-12T04:46:34.611Z,96654.09
2019-05-12T04:49:24.984Z,96654.87
2019-05-12T04:52:11.513Z,96657.48
2019-05-12T04:54:58.663Z,96662.57
2019-05-12T04:57:46.388Z,96651.97
2019-05-12T05:00:35.220Z,96663.17
2019-05-12T05:03:24.699Z,96664.61
2019-05-12T05:06:14.992Z,96669.11
2019-05-12T05:09:04.911Z,96672.97
2019-05-12T05:11:54.148Z,96672.61
2019-05-12T05:14:41.315Z,96671.73
2019-05-12T05:17:29.777Z,96680.38
2019-05-12T05:20:16.982Z,96686.95
2019-05-12T05:23:04.693Z,96692.22
2019-05-12T05:25:55.743Z,96701.75
2019-05-12T05:28:47.365Z,96694.85
2019-05-12T05:31:34.776Z,96704.53
2019-05-12T05:34:26.146Z,96704.04
2019-05-12T05:37:14.540Z,96698.53
2019-05-12T05:40:03.972Z,96704.98
2019-05-12T05:42:51.483Z,96707.43
2019-05-12T05:45:39.305Z,96714.30
2019-05-12T05:48:27.001Z,96715.79
2019-05-12T05:51:16.418Z,96723.04
2019-05-12T05:54:05.573Z,96724.88
2019-05-12T05:56:59.688Z,96727.27
2019-05-12T05:59:44.690Z,96730.11
2019-05-12T06:02:39.936Z,96730.42
2019-05-12T06:05:26.306Z,96732.58
2019-05-12T06:08:16.298Z,96738.20
2019-05-12T06:11:00.368Z,96740.61
2019-05-12T06:13:48.268Z,96745.11
2019-05-12T06:16:36.414Z,96742.55
2019-05-12T06:19:26.256Z,96738.27
2019-05-12T06:22:20.351Z,96740.67
2019-05-12T06:25:08.077Z,96742.49
2019-05-12T06:28:00.104Z,96742.77
2019-05-12T06:30:47.622Z,96740.41
2019-05-12T06:33:36.199Z,96753.12
2019-05-12T06:36:27.109Z,96754.42
2019-05-12T06:39:19.075Z,96758.97
2019-05-12T06:42:08.660Z,96759.13
2019-05-12T06:44:55.129Z,96766.80
2019-05-12T06:47:44.412Z,96769.59
2019-05-12T06:50:39.190Z,96769.45
2019-05-12T06:53:30.769Z,96774.37
2019-05-12T06:56:19.489Z,96779.94
2019-05-12T06:59:09.397Z,96784.77
2019-05-12T07:01:58.769Z,96793.59
2019-05-12T07:04:46.168Z,96792.33
2019-05-12T07:07:33.443Z,96799.34
2019-05-12T07:10:36.911Z,96803.91
2019-05-12T07:13:14.718Z,96803.57
2019-05-12T07:16:16.672Z,96802.57
2019-05-12T07:19:07.697Z,96803.62
2019-05-12T07:21:58.260Z,96800.77
2019-05-12T07:24:50.202Z,96803.42
2019-05-12T07:27:38.723Z,96797.39
2019-05-12T07:30:31.718Z,96798.95
2019-05-12T07:33:17.189Z,96808.89
2019-05-12T07:36:06.436Z,96802.02
2019-05-12T07:38:55.899Z,96808.25
2019-05-12T07:41:51.015Z,96816.55
2019-05-12T07:44:40.266Z,96816.61
2019-05-12T07:47:29.208Z,96805.91
2019-05-12T07:50:16.320Z,96812.34
2019-05-12T07:53:04.242Z,96817.02
2019-05-12T07:55:53.804Z,96823.35
2019-05-12T07:58:46.348Z,96827.54
2019-05-12T08:01:30.250Z,96831.50
2019-05-12T08:04:17.718Z,96827.60
2019-05-12T08:07:07.576Z,96830.48
2019-05-12T08:09:54.584Z,96838.55
2019-05-12T08:12:44.283Z,96842.16
2019-05-12T08:15:33.707Z,96841.12
2019-05-12T08:18:21.641Z,96842.41
2019-05-12T08:21:09.476Z,96835.94
2019-05-12T08:23:56.748Z,96844.17
2019-05-12T08:26:44.152Z,96837.77
2019-05-12T08:29:34.482Z,96838.58
2019-05-12T08:32:23.400Z,96849.86
2019-05-12T08:35:13.953Z,96838.22
2019-05-12T08:38:03.642Z,96851.40
2019-05-12T08:40:51.249Z,96844.42
2019-05-12T08:43:40.484Z,96846.05
2019-05-12T08:46:28.745Z,96848.36
2019-05-12T08:49:16.438Z,96846.69
2019-05-12T08:52:04.344Z,96841.57
2019-05-12T08:54:53.637Z,96845.06
2019-05-12T08:57:46.479Z,96852.23
2019-05-12T09:00:39.507Z,96860.76
2019-05-12T09:03:27.261Z,96852.09
2019-05-12T09:06:15.445Z,96865.36
2019-05-12T09:09:05.384Z,96858.25
2019-05-12T09:11:54.173Z,96857.28
2019-05-12T09:14:46.317Z,96850.52
2019-05-12T09:17:30.844Z,96856.19
2019-05-12T09:20:18.472Z,96861.73
2019-05-12T09:23:05.841Z,96856.97
2019-05-12T09:25:54.459Z,96852.34
2019-05-12T09:28:49.305Z,96856.59
2019-05-12T09:31:33.397Z,96866.55
2019-05-12T09:34:20.551Z,96863.50
2019-05-12T09:37:08.006Z,96857.78
2019-05-12T09:39:56.249Z,96852.52
2019-05-12T09:42:48.043Z,96845.56
2019-05-12T09:45:40.265Z,96855.59
2019-05-12T09:48:25.512Z,96845.45
2019-05-12T09:51:14.384Z,96854.89
2019-05-12T09:54:01.985Z,96861.92
2019-05-12T09:56:54.253Z,96864.61
2019-05-12T09:59:38.878Z,96858.78
2019-05-12T10:02:27.028Z,96873.50
2019-05-12T10:05:14.725Z,96864.75
2019-05-12T10:08:04.566Z,96864.53
2019-05-12T10:10:53.429Z,96873.44
2019-05-12T10:13:41.802Z,96872.77
2019-05-12T10:16:29.466Z,96876.37
2019-05-12T10:19:17.593Z,96885.45
2019-05-12T10:22:05.791Z,96887.05
2019-05-12T10:24:58.319Z,96884.66
2019-05-12T10:27:44.255Z,96882.05
2019-05-12T10:30:31.136Z,96878.91
2019-05-12T10:33:18.256Z,96881.92
2019-05-12T10:36:08.565Z,96878.44
2019-05-12T10:38:55.266Z,96882.31
2019-05-12T10:41:43.805Z,96887.34
2019-05-12T10:44:39.247Z,96884.05
2019-05-12T10:47:21.108Z,96889.71
2019-05-12T10:50:09.867Z,96885.37
2019-05-12T10:52:57.646Z,96883.39
2019-05-12T10:55:44.991Z,96889.48
2019-05-12T10:58:33.625Z,96878.38
2019-05-12T11:01:21.042Z,96881.20
2019-05-12T11:04:08.419Z,96868.95
2019-05-12T11:06:55.832Z,96868.54
2019-05-12T11:09:43.929Z,96869.42
2019-05-12T11:12:33.357Z,96881.52
2019-05-12T11:15:21.485Z,96876.52
2019-05-12T11:18:20.672Z,96876.70
2019-05-12T11:21:05.777Z,96875.30
2019-05-12T11:23:54.337Z,96875.61
2019-05-12T11:26:43.239Z,96876.08
2019-05-12T11:29:44.852Z,96867.71
2019-05-12T11:32:19.808Z,96872.31
2019-05-12T11:35:07.346Z,96862.45
2019-05-12T11:37:54.779Z,96860.37
2019-05-12T11:40:43.801Z,96867.77
2019-05-12T11:43:33.732Z,96868.81
2019-05-12T11:46:23.603Z,96873.30
2019-05-12T11:49:10.088Z,96876.45
2019-05-12T11:52:00.994Z,96878.75
2019-05-12T11:54:51.161Z,96882.69
2019-05-12T11:57:38.686Z,96873.84
2019-05-12T12:00:28.632Z,96868.72
2019-05-12T12:03:18.229Z,96861.50
2019-05-12T12:06:05.305Z,96864.55
2019-05-12T12:08:53.726Z,96862.61
2019-05-12T12:11:43.356Z,96870.31
2019-05-12T12:14:31.864Z,96869.27
2019-05-12T12:17:25.458Z,96871.36
2019-05-12T12:20:13.985Z,96870.00
2019-05-12T12:23:00.206Z,96892.48
2019-05-12T12:25:48.707Z,96886.19
2019-05-12T12:28:37.275Z,96885.53
2019-05-12T12:31:29.624Z,96883.56
2019-05-12T12:34:15.585Z,96889.62
2019-05-12T12:37:03.493Z,96893.31
2019-05-12T12:39:50.561Z,96892.52
2019-05-12T12:42:44.221Z,96884.02
2019-05-12T12:45:36.837Z,96893.02
2019-05-12T12:48:25.506Z,96873.77
2019-05-12T12:51:10.580Z,96889.36
2019-05-12T12:53:58.772Z,96886.20
2019-05-12T12:56:46.807Z,96892.63
2019-05-12T12:59:34.477Z,96903.38
2019-05-12T13:02:24.534Z,96894.77
2019-05-12T13:05:13.480Z,96893.70
2019-05-12T13:08:00.398Z,96907.64
2019-05-12T13:10:51.342Z,96904.13
2019-05-12T13:13:37.733Z,96896.12
2019-05-12T13:16:25.384Z,96895.48
2019-05-12T13:19:16.902Z,96906.91
2019-05-12T13:22:03.714Z,96902.64
2019-05-12T13:24:53.047Z,96905.64
2019-05-12T13:27:39.812Z,96908.69
2019-05-12T13:30:27.324Z,96906.94
2019-05-12T13:33:18.090Z,96913.58
2019-05-12T13:36:04.305Z,96905.73
2019-05-12T13:38:52.529Z,96908.16
2019-05-12T13:41:39.856Z,96902.42
2019-05-12T13:44:30.457Z,96915.09
2019-05-12T13:47:16.220Z,96908.64
2019-05-12T13:50:04.200Z,96917.98
2019-05-12T13:52:54.049Z,96925.45
2019-05-12T13:55:47.532Z,96911.98
2019-05-12T13:58:34.541Z,96899.19
2019-05-12T14:01:20.420Z,96910.70
2019-05-12T14:04:08.408Z,96900.67
2019-05-12T14:06:55.608Z,96901.34
2019-05-12T14:09:43.683Z,96919.11
2019-05-12T14:12:31.468Z,96909.45
2019-05-12T14:15:19.508Z,96906.55
2019-05-12T14:18:15.686Z,96911.09
2019-05-12T14:21:00.518Z,96909.61
2019-05-12T14:23:48.272Z,96911.91
2019-05-12T14:26:39.278Z,96909.34
2019-05-12T14:29:26.507Z,96917.25
2019-05-12T14:32:17.289Z,96909.39
2019-05-12T14:35:04.307Z,96899.73
2019-05-12T14:37:53.741Z,96909.57
2019-05-12T14:40:41.022Z,96908.13
2019-05-12T14:43:28.418Z,96919.97
2019-05-12T14:46:15.944Z,96925.77
2019-05-12T14:49:03.712Z,96925.70
2019-05-12T14:51:54.422Z,96926.44
2019-05-12T14:54:43.554Z,96933.34
2019-05-12T14:57:37.375Z,96931.15
2019-05-12T15:00:21.896Z,96947.52
2019-05-12T15:03:13.045Z,96950.66
2019-05-12T15:05:57.952Z,96955.23
2019-05-12T15:08:45.381Z,96957.08
2019-05-12T15:11:34.138Z,96959.93
2019-05-12T15:14:24.662Z,96955.57
2019-05-12T15:17:13.715Z,96961.44
2019-05-12T15:20:06.614Z,96957.20
2019-05-12T15:22:51.484Z,96969.78
2019-05-12T15:25:39.089Z,96978.08
2019-05-12T15:28:26.403Z,96984.98
2019-05-12T15:31:14.492Z,96990.20
2019-05-12T15:34:03.575Z,96985.69
2019-05-12T15:36:53.816Z,96986.73
2019-05-12T15:39:40.753Z,96987.16
2019-05-12T15:42:28.441Z,96994.77
2019-05-12T15:45:16.728Z,96989.52
2019-05-12T15:48:04.542Z,96994.58
2019-05-12T15:50:54.024Z,96995.38
2019-05-12T15:53:44.403Z,97002.40
2019-05-12T15:56:30.613Z,97009.36
2019-05-12T15:59:18.231Z,97006.45
2019-05-12T16:02:12.473Z,97008.25
2019-05-12T16:04:55.237Z,97008.48
2019-05-12T16:07:43.623Z,97006.30
2019-05-12T16:10:31.593Z,97008.38
2019-05-12T16:13:19.040Z,97012.36
2019-05-12T16:16:07.018Z,97016.41
2019-05-12T16:18:54.114Z,97016.69
2019-05-12T16:21:45.368Z,97017.30
2019-05-12T16:24:31.205Z,97012.65
2019-05-12T16:27:18.945Z,97017.72
2019-05-12T16:30:07.185Z,97015.51
2019-05-12T16:32:55.168Z,97022.38
2019-05-12T16:35:44.139Z,97022.89
2019-05-12T16:38:31.810Z,97023.34
2019-05-12T16:41:28.121Z,97016.50
2019-05-12T16:44:20.817Z,97014.55
2019-05-12T16:46:58.309Z,97018.56
2019-05-12T16:49:45.869Z,97022.05
2019-05-12T16:52:40.508Z,97027.09
2019-05-12T16:55:24.198Z,97029.02
2019-05-12T16:58:13.416Z,97028.37
2019-05-12T17:01:00.667Z,97031.23
2019-05-12T17:03:48.712Z,97024.50
2019-05-12T17:06:38.606Z,97025.97
2019-05-12T17:09:25.898Z,97036.98
2019-05-12T17:12:14.746Z,97035.95
2019-05-12T17:15:04.029Z,97040.02
2019-05-12T17:17:58.533Z,97042.48
2019-05-12T17:20:45.859Z,97047.11
2019-05-12T17:23:29.851Z,97052.48
2019-05-12T17:26:17.522Z,97052.67
2019-05-12T17:29:05.042Z,97063.26
2019-05-12T17:31:53.582Z,97061.59
2019-05-12T17:34:45.658Z,97063.44
2019-05-12T17:37:31.294Z,97075.63
2019-05-12T17:40:24.266Z,97075.91
2019-05-12T17:43:12.236Z,97074.91
2019-05-12T17:46:01.951Z,97079.20
2019-05-12T17:48:49.660Z,97080.39
2019-05-12T17:51:36.953Z,97079.81
2019-05-12T17:54:26.570Z,97086.66
2019-05-12T17:57:18.050Z,97084.78
2019-05-12T18:00:06.291Z,97086.77
2019-05-12T18:02:56.241Z,97085.09
2019-05-12T18:05:47.811Z,97093.34
2019-05-12T18:08:35.672Z,97086.83
2019-05-12T18:11:20.295Z,97095.45
2019-05-12T18:14:08.373Z,97092.38
2019-05-12T18:17:02.816Z,97103.38
2019-05-12T18:19:50.323Z,97104.00
2019-05-12T18:22:39.329Z,97107.85
2019-05-12T18:25:30.301Z,97103.27
2019-05-12T18:28:13.976Z,97100.30
2019-05-12T18:31:04.296Z,97105.45
2019-05-12T18:33:56.124Z,97112.34
2019-05-12T18:36:40.456Z,97110.09
2019-05-12T18:39:28.131Z,97112.27
2019-05-12T18:42:15.729Z,97111.59
2019-05-12T18:45:12.278Z,97109.53
2019-05-12T18:47:53.925Z,97113.80
2019-05-12T18:50:44.049Z,97123.50
2019-05-12T18:53:31.937Z,97119.09
2019-05-12T18:56:21.774Z,97128.17
2019-05-12T18:59:15.585Z,97129.44
2019-05-12T19:01:57.833Z,97137.19
2019-05-12T19:04:45.269Z,97143.86
2019-05-12T19:07:39.614Z,97146.35
2019-05-12T19:10:24.059Z,97155.81
2019-05-12T19:13:11.711Z,97158.78
2019-05-12T19:16:06.225Z,97162.39
2019-05-12T19:18:48.156Z,97160.17
2019-05-12T19:21:37.617Z,97153.78
2019-05-12T19:24:25.062Z,97156.75
2019-05-12T19:27:18.976Z,97152.27
2019-05-12T19:30:04.261Z,97156.59
2019-05-12T19:32:54.538Z,97156.70
2019-05-12T19:35:40.485Z,97164.45
2019-05-12T19:38:28.522Z,97173.40
2019-05-12T19:41:18.044Z,97168.74
2019-05-12T19:44:05.721Z,97180.95
2019-05-12T19:46:54.001Z,97179.53
2019-05-12T19:49:50.715Z,97175.80
2019-05-12T19:52:37.789Z,97185.44
2019-05-12T19:55:25.455Z,97179.59
2019-05-12T19:58:13.001Z,97178.30
2019-05-12T20:01:00.716Z,97185.65
2019-05-12T20:03:50.060Z,97185.44
2019-05-12T20:06:37.467Z,97183.71
2019-05-12T20:09:26.102Z,97181.80
2019-05-12T20:12:18.678Z,97176.48
2019-05-12T20:15:03.999Z,97184.03
2019-05-12T20:17:53.574Z,97187.34
2019-05-12T20:20:44.401Z,97188.16
2019-05-12T20:23:30.365Z,97191.70
2019-05-12T20:26:20.761Z,97186.77
2019-05-12T20:29:13.680Z,97178.70
2019-05-12T20:32:00.728Z,97184.38
2019-05-12T20:34:52.076Z,97188.99
2019-05-12T20:37:44.222Z,97187.39
2019-05-12T20:40:32.130Z,97183.33
2019-05-12T20:43:24.052Z,97187.70
2019-05-12T20:46:15.820Z,97189.97
2019-05-12T20:49:01.200Z,97192.17
2019-05-12T20:51:48.366Z,97187.70
2019-05-12T20:54:36.085Z,97198.44
2019-05-12T20:57:23.794Z,97198.70
2019-05-12T21:00:24.251Z,97201.73
2019-05-12T21:03:09.542Z,97199.09
2019-05-12T21:06:01.437Z,97199.17
2019-05-12T21:08:53.872Z,97200.28
2019-05-12T21:11:36.053Z,97206.73
2019-05-12T21:14:24.098Z,97202.97
2019-05-12T21:17:15.788Z,97202.75
2019-05-12T21:20:01.255Z,97203.30
2019-05-12T21:23:04.494Z,97205.05
2019-05-12T21:25:58.145Z,97196.91
2019-05-12T21:28:48.239Z,97205.33
2019-05-12T21:31:34.589Z,97202.89
2019-05-12T21:34:23.347Z,97197.02
2019-05-12T21:37:13.934Z,97200.72
2019-05-12T21:40:03.635Z,97210.19
2019-05-12T21:42:54.657Z,97205.72
2019-05-12T21:45:43.419Z,97207.34
2019-05-12T21:48:31.111Z,97208.11
2019-05-12T21:51:20.099Z,97207.03
2019-05-12T21:54:07.453Z,97206.52
2019-05-12T21:56:54.918Z,97202.48
2019-05-12T21:59:42.677Z,97202.09
2019-05-12T22:02:30.896Z,97199.19
2019-05-12T22:05:23.704Z,97196.26
2019-05-12T22:08:17.650Z,97201.38
2019-05-12T22:11:00.962Z,97198.39
2019-05-12T22:13:55.857Z,97195.47
2019-05-12T22:16:46.119Z,97195.20
2019-05-12T22:19:31.316Z,97189.53
2019-05-12T22:22:19.604Z,97191.64
2019-05-12T22:25:09.718Z,97189.71
2019-05-12T22:27:59.301Z,97183.28
2019-05-12T22:30:46.749Z,97187.30
2019-05-12T22:33:34.184Z,97180.62
2019-05-12T22:36:26.041Z,97178.10
2019-05-12T22:39:10.577Z,97174.65
2019-05-12T22:41:57.842Z,97170.84
2019-05-12T22:44:45.175Z,97162.68
2019-05-12T22:47:33.488Z,97172.48
2019-05-12T22:50:21.807Z,97167.64
2019-05-12T22:53:09.112Z,97158.56
2019-05-12T22:55:56.236Z,97168.28
2019-05-12T22:58:44.408Z,97161.06
2019-05-12T23:01:32.921Z,97169.38
2019-05-12T23:04:25.907Z,97175.59
2019-05-12T23:07:09.838Z,97179.95
2019-05-12T23:10:00.550Z,97184.61
2019-05-12T23:12:50.185Z,97173.34
2019-05-12T23:15:38.871Z,97178.73
2019-05-12T23:18:30.598Z,97177.12
2019-05-12T23:21:17.462Z,97177.62
2019-05-12T23:24:06.163Z,97172.24
2019-05-12T23:26:54.361Z,97173.88
2019-05-12T23:29:44.399Z,97169.86
2019-05-12T23:32:31.616Z,97170.74
2019-05-12T23:35:19.435Z,97165.35
2019-05-12T23:38:10.448Z,97171.52
2019-05-12T23:40:56.690Z,97167.78
2019-05-12T23:43:45.542Z,97162.93
2019-05-12T23:46:34.267Z,97159.67
2019-05-12T23:49:21.779Z,97157.77
2019-05-12T23:52:09.428Z,97161.28
2019-05-12T23:54:56.864Z,97155.09
2019-05-12T23:57:44.664Z,97152.69
